sensor_id;sensor_type;location;lat;lon;timestamp;P1;durP1;ratioP1;P2;durP2;ratioP2
67986;SDS011;54767;53.800;15.956;2023-04-09T00:00:02;29.10;;;15.80;;
67986;SDS011;54767;53.800;15.956;2023-04-09T00:02:30;28.20;;;14.40;;
67986;SDS011;54767;53.800;15.956;2023-04-09T00:05:00;27.60;;;14.40;;
67986;SDS011;54767;53.800;15.956;2023-04-09T00:07:28;27.50;;;13.60;;
67986;SDS011;54767;53.800;15.956;2023-04-09T00:09:57;27.50;;;14.30;;
67986;SDS011;54767;53.800;15.956;2023-04-09T00:12:25;28.70;;;14.80;;
67986;SDS011;54767;53.800;15.956;2023-04-09T00:14:54;27.90;;;14.00;;
67986;SDS011;54767;53.800;15.956;2023-04-09T00:17:22;26.30;;;13.90;;
67986;SDS011;54767;53.800;15.956;2023-04-09T00:19:50;28.90;;;14.60;;
67986;SDS011;54767;53.800;15.956;2023-04-09T00:22:18;27.40;;;13.90;;
67986;SDS011;54767;53.800;15.956;2023-04-09T00:24:47;26.80;;;13.80;;
67986;SDS011;54767;53.800;15.956;2023-04-09T00:27:15;30.80;;;14.70;;
67986;SDS011;54767;53.800;15.956;2023-04-09T00:29:44;29.70;;;14.40;;
67986;SDS011;54767;53.800;15.956;2023-04-09T00:32:12;27.40;;;13.90;;
67986;SDS011;54767;53.800;15.956;2023-04-09T00:34:41;28.40;;;14.60;;
67986;SDS011;54767;53.800;15.956;2023-04-09T00:37:09;29.10;;;13.60;;
67986;SDS011;54767;53.800;15.956;2023-04-09T00:39:37;27.60;;;13.90;;
67986;SDS011;54767;53.800;15.956;2023-04-09T00:42:06;26.70;;;13.10;;
67986;SDS011;54767;53.800;15.956;2023-04-09T00:44:34;26.20;;;13.30;;
67986;SDS011;54767;53.800;15.956;2023-04-09T00:47:02;28.00;;;13.10;;
67986;SDS011;54767;53.800;15.956;2023-04-09T00:49:30;25.50;;;12.50;;
67986;SDS011;54767;53.800;15.956;2023-04-09T00:51:59;24.10;;;12.30;;
67986;SDS011;54767;53.800;15.956;2023-04-09T00:54:27;25.30;;;12.30;;
67986;SDS011;54767;53.800;15.956;2023-04-09T00:56:55;26.20;;;13.10;;
67986;SDS011;54767;53.800;15.956;2023-04-09T00:59:24;27.50;;;13.20;;
67986;SDS011;54767;53.800;15.956;2023-04-09T01:01:53;26.80;;;12.30;;
67986;SDS011;54767;53.800;15.956;2023-04-09T01:04:21;23.90;;;12.20;;
67986;SDS011;54767;53.800;15.956;2023-04-09T01:06:52;23.20;;;11.20;;
67986;SDS011;54767;53.800;15.956;2023-04-09T01:09:27;21.70;;;10.20;;
67986;SDS011;54767;53.800;15.956;2023-04-09T01:12:04;22.20;;;9.90;;
67986;SDS011;54767;53.800;15.956;2023-04-09T01:14:47;23.00;;;10.60;;
67986;SDS011;54767;53.800;15.956;2023-04-09T01:20:21;24.00;;;10.90;;
67986;SDS011;54767;53.800;15.956;2023-04-09T01:28:44;22.20;;;10.90;;
67986;SDS011;54767;53.800;15.956;2023-04-09T01:31:17;22.80;;;10.80;;
67986;SDS011;54767;53.800;15.956;2023-04-09T01:33:47;24.60;;;11.00;;
67986;SDS011;54767;53.800;15.956;2023-04-09T01:36:15;23.90;;;11.00;;
67986;SDS011;54767;53.800;15.956;2023-04-09T01:38:44;22.50;;;11.40;;
67986;SDS011;54767;53.800;15.956;2023-04-09T01:41:16;23.00;;;11.30;;
67986;SDS011;54767;53.800;15.956;2023-04-09T01:43:52;23.70;;;11.30;;
67986;SDS011;54767;53.800;15.956;2023-04-09T01:49:36;22.40;;;10.80;;
67986;SDS011;54767;53.800;15.956;2023-04-09T01:52:06;22.80;;;10.80;;
67986;SDS011;54767;53.800;15.956;2023-04-09T01:54:36;22.20;;;10.80;;
67986;SDS011;54767;53.800;15.956;2023-04-09T01:57:05;24.40;;;10.70;;
67986;SDS011;54767;53.800;15.956;2023-04-09T01:59:33;26.60;;;11.10;;
67986;SDS011;54767;53.800;15.956;2023-04-09T02:02:05;23.80;;;10.30;;
67986;SDS011;54767;53.800;15.956;2023-04-09T02:04:40;23.40;;;11.10;;
67986;SDS011;54767;53.800;15.956;2023-04-09T02:07:17;24.10;;;10.70;;
67986;SDS011;54767;53.800;15.956;2023-04-09T02:09:47;26.40;;;11.10;;
67986;SDS011;54767;53.800;15.956;2023-04-09T02:12:18;24.00;;;10.70;;
67986;SDS011;54767;53.800;15.956;2023-04-09T02:17:18;22.90;;;10.30;;
67986;SDS011;54767;53.800;15.956;2023-04-09T02:19:46;25.10;;;10.50;;
67986;SDS011;54767;53.800;15.956;2023-04-09T02:22:15;25.40;;;10.30;;
67986;SDS011;54767;53.800;15.956;2023-04-09T02:24:44;23.30;;;10.10;;
67986;SDS011;54767;53.800;15.956;2023-04-09T02:27:13;21.80;;;9.80;;
67986;SDS011;54767;53.800;15.956;2023-04-09T02:29:41;27.20;;;10.90;;
67986;SDS011;54767;53.800;15.956;2023-04-09T02:32:10;24.00;;;10.30;;
67986;SDS011;54767;53.800;15.956;2023-04-09T02:34:38;25.30;;;10.20;;
67986;SDS011;54767;53.800;15.956;2023-04-09T02:37:06;25.00;;;10.30;;
67986;SDS011;54767;53.800;15.956;2023-04-09T02:39:35;22.50;;;10.20;;
67986;SDS011;54767;53.800;15.956;2023-04-09T02:42:03;26.30;;;10.20;;
67986;SDS011;54767;53.800;15.956;2023-04-09T02:44:32;28.70;;;11.60;;
67986;SDS011;54767;53.800;15.956;2023-04-09T02:47:01;26.40;;;10.90;;
67986;SDS011;54767;53.800;15.956;2023-04-09T02:49:30;26.10;;;11.50;;
67986;SDS011;54767;53.800;15.956;2023-04-09T02:51:58;26.70;;;11.70;;
67986;SDS011;54767;53.800;15.956;2023-04-09T02:54:26;29.10;;;11.20;;
67986;SDS011;54767;53.800;15.956;2023-04-09T02:56:55;28.10;;;11.50;;
67986;SDS011;54767;53.800;15.956;2023-04-09T02:59:23;26.50;;;11.10;;
67986;SDS011;54767;53.800;15.956;2023-04-09T03:01:51;28.80;;;11.20;;
67986;SDS011;54767;53.800;15.956;2023-04-09T03:04:20;26.30;;;11.00;;
67986;SDS011;54767;53.800;15.956;2023-04-09T03:06:48;29.00;;;12.10;;
67986;SDS011;54767;53.800;15.956;2023-04-09T03:09:18;29.00;;;11.90;;
67986;SDS011;54767;53.800;15.956;2023-04-09T03:11:46;27.50;;;11.20;;
67986;SDS011;54767;53.800;15.956;2023-04-09T03:14:14;27.10;;;12.00;;
67986;SDS011;54767;53.800;15.956;2023-04-09T03:16:43;27.60;;;11.80;;
67986;SDS011;54767;53.800;15.956;2023-04-09T03:19:11;27.80;;;11.10;;
67986;SDS011;54767;53.800;15.956;2023-04-09T03:21:39;26.50;;;11.20;;
67986;SDS011;54767;53.800;15.956;2023-04-09T03:24:08;29.20;;;11.70;;
67986;SDS011;54767;53.800;15.956;2023-04-09T03:26:36;29.60;;;12.20;;
67986;SDS011;54767;53.800;15.956;2023-04-09T03:29:05;27.50;;;10.90;;
67986;SDS011;54767;53.800;15.956;2023-04-09T03:31:34;29.00;;;11.80;;
67986;SDS011;54767;53.800;15.956;2023-04-09T03:34:02;25.90;;;10.90;;
67986;SDS011;54767;53.800;15.956;2023-04-09T03:36:30;25.70;;;11.70;;
67986;SDS011;54767;53.800;15.956;2023-04-09T03:38:59;27.60;;;12.50;;
67986;SDS011;54767;53.800;15.956;2023-04-09T03:41:28;27.40;;;12.00;;
67986;SDS011;54767;53.800;15.956;2023-04-09T03:43:57;31.90;;;13.20;;
67986;SDS011;54767;53.800;15.956;2023-04-09T03:46:25;29.40;;;12.60;;
67986;SDS011;54767;53.800;15.956;2023-04-09T03:48:53;26.60;;;12.40;;
67986;SDS011;54767;53.800;15.956;2023-04-09T03:51:21;27.50;;;11.30;;
67986;SDS011;54767;53.800;15.956;2023-04-09T03:53:50;25.90;;;11.40;;
67986;SDS011;54767;53.800;15.956;2023-04-09T03:56:18;26.30;;;11.60;;
67986;SDS011;54767;53.800;15.956;2023-04-09T03:58:46;30.60;;;11.60;;
67986;SDS011;54767;53.800;15.956;2023-04-09T04:03:44;25.50;;;11.80;;
67986;SDS011;54767;53.800;15.956;2023-04-09T04:06:13;26.40;;;10.90;;
67986;SDS011;54767;53.800;15.956;2023-04-09T04:08:41;24.60;;;11.10;;
67986;SDS011;54767;53.800;15.956;2023-04-09T04:11:10;25.30;;;10.20;;
67986;SDS011;54767;53.800;15.956;2023-04-09T04:13:39;27.40;;;11.50;;
67986;SDS011;54767;53.800;15.956;2023-04-09T04:16:07;27.50;;;11.60;;
67986;SDS011;54767;53.800;15.956;2023-04-09T04:18:36;28.90;;;10.90;;
67986;SDS011;54767;53.800;15.956;2023-04-09T04:21:10;28.10;;;11.80;;
67986;SDS011;54767;53.800;15.956;2023-04-09T04:23:40;26.40;;;11.20;;
67986;SDS011;54767;53.800;15.956;2023-04-09T04:26:08;23.90;;;11.20;;
67986;SDS011;54767;53.800;15.956;2023-04-09T04:28:37;24.10;;;10.10;;
67986;SDS011;54767;53.800;15.956;2023-04-09T04:31:10;24.60;;;11.30;;
67986;SDS011;54767;53.800;15.956;2023-04-09T04:33:39;24.20;;;10.60;;
67986;SDS011;54767;53.800;15.956;2023-04-09T04:36:09;25.90;;;11.50;;
67986;SDS011;54767;53.800;15.956;2023-04-09T04:38:39;22.90;;;10.30;;
67986;SDS011;54767;53.800;15.956;2023-04-09T04:41:09;23.30;;;10.70;;
67986;SDS011;54767;53.800;15.956;2023-04-09T04:43:39;23.50;;;10.40;;
67986;SDS011;54767;53.800;15.956;2023-04-09T04:46:08;23.80;;;11.20;;
67986;SDS011;54767;53.800;15.956;2023-04-09T04:48:36;25.20;;;10.80;;
67986;SDS011;54767;53.800;15.956;2023-04-09T04:51:05;20.70;;;9.90;;
67986;SDS011;54767;53.800;15.956;2023-04-09T04:53:33;27.10;;;10.80;;
67986;SDS011;54767;53.800;15.956;2023-04-09T04:56:01;23.30;;;10.70;;
67986;SDS011;54767;53.800;15.956;2023-04-09T04:58:30;22.90;;;10.50;;
67986;SDS011;54767;53.800;15.956;2023-04-09T05:00:58;21.30;;;10.80;;
67986;SDS011;54767;53.800;15.956;2023-04-09T05:03:27;25.00;;;11.70;;
67986;SDS011;54767;53.800;15.956;2023-04-09T05:05:55;21.20;;;10.00;;
67986;SDS011;54767;53.800;15.956;2023-04-09T05:08:23;25.00;;;10.80;;
67986;SDS011;54767;53.800;15.956;2023-04-09T05:10:52;25.40;;;10.80;;
67986;SDS011;54767;53.800;15.956;2023-04-09T05:13:23;23.00;;;10.20;;
67986;SDS011;54767;53.800;15.956;2023-04-09T05:15:52;21.50;;;10.20;;
67986;SDS011;54767;53.800;15.956;2023-04-09T05:18:20;23.30;;;9.80;;
67986;SDS011;54767;53.800;15.956;2023-04-09T05:20:48;24.30;;;9.90;;
67986;SDS011;54767;53.800;15.956;2023-04-09T05:23:16;24.50;;;10.60;;
67986;SDS011;54767;53.800;15.956;2023-04-09T05:25:46;28.10;;;11.50;;
67986;SDS011;54767;53.800;15.956;2023-04-09T05:28:16;26.40;;;11.80;;
67986;SDS011;54767;53.800;15.956;2023-04-09T05:30:45;24.60;;;10.80;;
67986;SDS011;54767;53.800;15.956;2023-04-09T05:33:14;31.30;;;13.10;;
67986;SDS011;54767;53.800;15.956;2023-04-09T05:35:42;30.50;;;12.50;;
67986;SDS011;54767;53.800;15.956;2023-04-09T05:38:11;24.70;;;10.80;;
67986;SDS011;54767;53.800;15.956;2023-04-09T05:40:40;23.70;;;9.80;;
67986;SDS011;54767;53.800;15.956;2023-04-09T05:43:11;26.10;;;10.60;;
67986;SDS011;54767;53.800;15.956;2023-04-09T05:45:39;27.10;;;11.10;;
67986;SDS011;54767;53.800;15.956;2023-04-09T05:48:08;25.50;;;10.90;;
67986;SDS011;54767;53.800;15.956;2023-04-09T05:50:36;30.10;;;12.20;;
67986;SDS011;54767;53.800;15.956;2023-04-09T05:53:21;22.90;;;9.70;;
67986;SDS011;54767;53.800;15.956;2023-04-09T05:55:50;30.10;;;12.00;;
67986;SDS011;54767;53.800;15.956;2023-04-09T05:58:18;23.40;;;11.00;;
67986;SDS011;54767;53.800;15.956;2023-04-09T06:00:47;27.20;;;11.00;;
67986;SDS011;54767;53.800;15.956;2023-04-09T06:03:15;25.80;;;10.50;;
67986;SDS011;54767;53.800;15.956;2023-04-09T06:05:44;24.60;;;11.40;;
67986;SDS011;54767;53.800;15.956;2023-04-09T06:08:13;28.00;;;10.80;;
67986;SDS011;54767;53.800;15.956;2023-04-09T06:10:41;25.30;;;10.60;;
67986;SDS011;54767;53.800;15.956;2023-04-09T06:13:10;26.60;;;10.60;;
67986;SDS011;54767;53.800;15.956;2023-04-09T06:15:38;23.80;;;10.80;;
67986;SDS011;54767;53.800;15.956;2023-04-09T06:18:06;28.90;;;11.50;;
67986;SDS011;54767;53.800;15.956;2023-04-09T06:20:35;28.70;;;11.70;;
67986;SDS011;54767;53.800;15.956;2023-04-09T06:23:03;21.90;;;9.80;;
67986;SDS011;54767;53.800;15.956;2023-04-09T06:25:32;28.00;;;11.60;;
67986;SDS011;54767;53.800;15.956;2023-04-09T06:28:02;25.70;;;11.20;;
67986;SDS011;54767;53.800;15.956;2023-04-09T06:30:30;27.90;;;10.40;;
67986;SDS011;54767;53.800;15.956;2023-04-09T06:33:04;26.80;;;11.20;;
67986;SDS011;54767;53.800;15.956;2023-04-09T06:35:32;29.90;;;11.80;;
67986;SDS011;54767;53.800;15.956;2023-04-09T06:38:00;31.30;;;11.90;;
67986;SDS011;54767;53.800;15.956;2023-04-09T06:40:29;28.80;;;12.50;;
67986;SDS011;54767;53.800;15.956;2023-04-09T06:42:57;29.80;;;11.70;;
67986;SDS011;54767;53.800;15.956;2023-04-09T06:45:26;26.20;;;11.00;;
67986;SDS011;54767;53.800;15.956;2023-04-09T06:47:55;29.80;;;12.80;;
67986;SDS011;54767;53.800;15.956;2023-04-09T06:50:24;30.30;;;9.80;;
67986;SDS011;54767;53.800;15.956;2023-04-09T06:52:55;32.90;;;12.90;;
67986;SDS011;54767;53.800;15.956;2023-04-09T06:55:24;30.30;;;12.00;;
67986;SDS011;54767;53.800;15.956;2023-04-09T06:57:53;32.80;;;12.70;;
67986;SDS011;54767;53.800;15.956;2023-04-09T07:00:22;30.90;;;12.10;;
67986;SDS011;54767;53.800;15.956;2023-04-09T07:02:58;31.00;;;12.60;;
67986;SDS011;54767;53.800;15.956;2023-04-09T07:05:26;35.50;;;13.50;;
67986;SDS011;54767;53.800;15.956;2023-04-09T07:07:54;31.60;;;13.30;;
67986;SDS011;54767;53.800;15.956;2023-04-09T07:10:23;33.10;;;14.00;;
67986;SDS011;54767;53.800;15.956;2023-04-09T07:12:51;30.70;;;13.30;;
67986;SDS011;54767;53.800;15.956;2023-04-09T07:15:20;32.70;;;14.10;;
67986;SDS011;54767;53.800;15.956;2023-04-09T07:17:48;32.10;;;13.90;;
67986;SDS011;54767;53.800;15.956;2023-04-09T07:20:16;31.20;;;14.70;;
67986;SDS011;54767;53.800;15.956;2023-04-09T07:22:45;33.00;;;15.50;;
67986;SDS011;54767;53.800;15.956;2023-04-09T07:25:13;32.10;;;13.60;;
67986;SDS011;54767;53.800;15.956;2023-04-09T07:27:42;35.80;;;14.70;;
67986;SDS011;54767;53.800;15.956;2023-04-09T07:30:11;34.90;;;16.10;;
67986;SDS011;54767;53.800;15.956;2023-04-09T07:32:39;33.70;;;16.20;;
67986;SDS011;54767;53.800;15.956;2023-04-09T07:35:08;34.80;;;16.80;;
67986;SDS011;54767;53.800;15.956;2023-04-09T07:37:38;38.80;;;18.40;;
67986;SDS011;54767;53.800;15.956;2023-04-09T07:40:07;31.90;;;15.40;;
67986;SDS011;54767;53.800;15.956;2023-04-09T07:42:36;30.40;;;14.30;;
67986;SDS011;54767;53.800;15.956;2023-04-09T07:45:06;33.30;;;15.80;;
67986;SDS011;54767;53.800;15.956;2023-04-09T07:47:35;36.10;;;21.20;;
67986;SDS011;54767;53.800;15.956;2023-04-09T07:50:05;54.60;;;30.10;;
67986;SDS011;54767;53.800;15.956;2023-04-09T07:52:34;58.40;;;32.30;;
67986;SDS011;54767;53.800;15.956;2023-04-09T07:55:03;65.90;;;43.10;;
67986;SDS011;54767;53.800;15.956;2023-04-09T07:57:32;44.10;;;35.10;;
67986;SDS011;54767;53.800;15.956;2023-04-09T08:00:00;51.20;;;42.00;;
67986;SDS011;54767;53.800;15.956;2023-04-09T08:02:29;29.70;;;18.20;;
67986;SDS011;54767;53.800;15.956;2023-04-09T08:04:58;28.80;;;15.60;;
67986;SDS011;54767;53.800;15.956;2023-04-09T08:07:27;27.60;;;15.00;;
67986;SDS011;54767;53.800;15.956;2023-04-09T08:09:55;30.50;;;15.30;;
67986;SDS011;54767;53.800;15.956;2023-04-09T08:12:23;24.90;;;14.80;;
67986;SDS011;54767;53.800;15.956;2023-04-09T08:14:51;29.00;;;16.00;;
67986;SDS011;54767;53.800;15.956;2023-04-09T08:17:20;30.10;;;16.00;;
67986;SDS011;54767;53.800;15.956;2023-04-09T08:19:49;26.40;;;14.70;;
67986;SDS011;54767;53.800;15.956;2023-04-09T08:22:17;37.10;;;24.90;;
67986;SDS011;54767;53.800;15.956;2023-04-09T08:24:49;28.20;;;20.60;;
67986;SDS011;54767;53.800;15.956;2023-04-09T08:27:18;24.50;;;15.10;;
67986;SDS011;54767;53.800;15.956;2023-04-09T08:29:47;25.20;;;16.10;;
67986;SDS011;54767;53.800;15.956;2023-04-09T08:32:16;35.90;;;23.10;;
67986;SDS011;54767;53.800;15.956;2023-04-09T08:34:44;31.60;;;24.70;;
67986;SDS011;54767;53.800;15.956;2023-04-09T08:37:12;27.90;;;18.90;;
67986;SDS011;54767;53.800;15.956;2023-04-09T08:39:42;24.30;;;16.00;;
67986;SDS011;54767;53.800;15.956;2023-04-09T08:42:10;25.60;;;15.80;;
67986;SDS011;54767;53.800;15.956;2023-04-09T08:44:40;26.50;;;14.30;;
67986;SDS011;54767;53.800;15.956;2023-04-09T08:47:09;25.70;;;15.10;;
67986;SDS011;54767;53.800;15.956;2023-04-09T08:49:38;29.10;;;17.70;;
67986;SDS011;54767;53.800;15.956;2023-04-09T08:52:08;26.50;;;16.20;;
67986;SDS011;54767;53.800;15.956;2023-04-09T08:54:36;23.20;;;14.90;;
67986;SDS011;54767;53.800;15.956;2023-04-09T08:57:05;23.30;;;16.00;;
67986;SDS011;54767;53.800;15.956;2023-04-09T08:59:33;22.20;;;14.80;;
67986;SDS011;54767;53.800;15.956;2023-04-09T09:02:07;24.40;;;15.70;;
67986;SDS011;54767;53.800;15.956;2023-04-09T09:04:45;19.80;;;11.20;;
67986;SDS011;54767;53.800;15.956;2023-04-09T09:07:15;17.10;;;10.00;;
67986;SDS011;54767;53.800;15.956;2023-04-09T09:09:55;16.30;;;10.70;;
67986;SDS011;54767;53.800;15.956;2023-04-09T09:12:32;16.90;;;10.50;;
67986;SDS011;54767;53.800;15.956;2023-04-09T09:17:56;15.30;;;9.20;;
67986;SDS011;54767;53.800;15.956;2023-04-09T09:20:26;17.90;;;10.00;;
67986;SDS011;54767;53.800;15.956;2023-04-09T09:22:56;14.80;;;8.50;;
67986;SDS011;54767;53.800;15.956;2023-04-09T09:25:24;16.40;;;9.40;;
67986;SDS011;54767;53.800;15.956;2023-04-09T09:27:53;16.70;;;9.40;;
67986;SDS011;54767;53.800;15.956;2023-04-09T09:30:23;13.70;;;7.80;;
67986;SDS011;54767;53.800;15.956;2023-04-09T09:33:03;13.70;;;7.60;;
67986;SDS011;54767;53.800;15.956;2023-04-09T09:35:53;15.30;;;7.30;;
67986;SDS011;54767;53.800;15.956;2023-04-09T09:38:24;16.80;;;6.90;;
67986;SDS011;54767;53.800;15.956;2023-04-09T09:40:53;12.10;;;7.10;;
67986;SDS011;54767;53.800;15.956;2023-04-09T09:43:21;17.50;;;8.10;;
67986;SDS011;54767;53.800;15.956;2023-04-09T09:45:49;12.50;;;6.20;;
67986;SDS011;54767;53.800;15.956;2023-04-09T09:48:18;13.50;;;7.30;;
67986;SDS011;54767;53.800;15.956;2023-04-09T09:50:46;12.50;;;6.10;;
67986;SDS011;54767;53.800;15.956;2023-04-09T09:53:17;13.80;;;6.80;;
67986;SDS011;54767;53.800;15.956;2023-04-09T09:55:52;14.60;;;7.30;;
67986;SDS011;54767;53.800;15.956;2023-04-09T09:58:27;11.20;;;5.70;;
67986;SDS011;54767;53.800;15.956;2023-04-09T10:01:07;11.00;;;6.30;;
67986;SDS011;54767;53.800;15.956;2023-04-09T10:03:38;10.90;;;5.40;;
67986;SDS011;54767;53.800;15.956;2023-04-09T10:06:07;10.80;;;6.20;;
67986;SDS011;54767;53.800;15.956;2023-04-09T10:08:37;10.60;;;5.80;;
67986;SDS011;54767;53.800;15.956;2023-04-09T10:11:08;10.00;;;5.60;;
67986;SDS011;54767;53.800;15.956;2023-04-09T10:13:41;9.80;;;5.50;;
67986;SDS011;54767;53.800;15.956;2023-04-09T10:16:13;11.50;;;5.70;;
67986;SDS011;54767;53.800;15.956;2023-04-09T10:21:13;10.10;;;5.20;;
67986;SDS011;54767;53.800;15.956;2023-04-09T10:26:20;9.20;;;7.10;;
67986;SDS011;54767;53.800;15.956;2023-04-09T10:29:07;10.20;;;5.30;;
67986;SDS011;54767;53.800;15.956;2023-04-09T10:31:44;9.00;;;5.10;;
67986;SDS011;54767;53.800;15.956;2023-04-09T10:34:23;13.10;;;7.90;;
67986;SDS011;54767;53.800;15.956;2023-04-09T10:36:55;7.90;;;5.00;;
67986;SDS011;54767;53.800;15.956;2023-04-09T10:39:25;8.30;;;4.80;;
67986;SDS011;54767;53.800;15.956;2023-04-09T10:41:55;8.20;;;4.80;;
67986;SDS011;54767;53.800;15.956;2023-04-09T10:44:26;8.10;;;4.90;;
67986;SDS011;54767;53.800;15.956;2023-04-09T10:46:58;7.50;;;4.90;;
67986;SDS011;54767;53.800;15.956;2023-04-09T10:49:26;8.00;;;4.40;;
67986;SDS011;54767;53.800;15.956;2023-04-09T10:52:04;7.90;;;5.10;;
67986;SDS011;54767;53.800;15.956;2023-04-09T10:54:42;9.80;;;5.70;;
67986;SDS011;54767;53.800;15.956;2023-04-09T10:57:14;8.70;;;4.60;;
67986;SDS011;54767;53.800;15.956;2023-04-09T10:59:44;7.40;;;4.40;;
67986;SDS011;54767;53.800;15.956;2023-04-09T11:07:46;6.60;;;4.60;;
67986;SDS011;54767;53.800;15.956;2023-04-09T11:10:20;8.10;;;4.90;;
67986;SDS011;54767;53.800;15.956;2023-04-09T11:12:48;10.00;;;4.60;;
67986;SDS011;54767;53.800;15.956;2023-04-09T11:15:17;9.90;;;5.60;;
67986;SDS011;54767;53.800;15.956;2023-04-09T11:17:46;8.60;;;4.70;;
67986;SDS011;54767;53.800;15.956;2023-04-09T11:20:18;8.80;;;4.70;;
67986;SDS011;54767;53.800;15.956;2023-04-09T11:22:49;7.90;;;4.60;;
67986;SDS011;54767;53.800;15.956;2023-04-09T11:27:47;7.20;;;4.60;;
67986;SDS011;54767;53.800;15.956;2023-04-09T11:30:16;7.80;;;4.80;;
67986;SDS011;54767;53.800;15.956;2023-04-09T11:32:45;7.50;;;4.60;;
67986;SDS011;54767;53.800;15.956;2023-04-09T11:35:14;8.90;;;4.80;;
67986;SDS011;54767;53.800;15.956;2023-04-09T11:37:44;7.40;;;4.50;;
67986;SDS011;54767;53.800;15.956;2023-04-09T11:40:17;9.20;;;4.50;;
67986;SDS011;54767;53.800;15.956;2023-04-09T11:42:48;8.70;;;5.00;;
67986;SDS011;54767;53.800;15.956;2023-04-09T11:45:19;11.20;;;4.50;;
67986;SDS011;54767;53.800;15.956;2023-04-09T11:47:50;7.70;;;4.50;;
67986;SDS011;54767;53.800;15.956;2023-04-09T11:50:19;8.60;;;4.10;;
67986;SDS011;54767;53.800;15.956;2023-04-09T11:52:49;6.60;;;3.90;;
67986;SDS011;54767;53.800;15.956;2023-04-09T11:55:24;8.30;;;4.60;;
67986;SDS011;54767;53.800;15.956;2023-04-09T11:57:57;11.50;;;4.80;;
67986;SDS011;54767;53.800;15.956;2023-04-09T12:00:30;8.20;;;4.90;;
67986;SDS011;54767;53.800;15.956;2023-04-09T12:03:00;8.00;;;4.40;;
67986;SDS011;54767;53.800;15.956;2023-04-09T12:05:32;8.10;;;4.20;;
67986;SDS011;54767;53.800;15.956;2023-04-09T12:08:02;6.60;;;4.20;;
67986;SDS011;54767;53.800;15.956;2023-04-09T12:10:35;7.90;;;4.40;;
67986;SDS011;54767;53.800;15.956;2023-04-09T12:13:06;6.10;;;4.10;;
67986;SDS011;54767;53.800;15.956;2023-04-09T12:15:37;7.50;;;4.40;;
67986;SDS011;54767;53.800;15.956;2023-04-09T12:18:11;9.30;;;4.40;;
67986;SDS011;54767;53.800;15.956;2023-04-09T12:20:41;7.10;;;4.00;;
67986;SDS011;54767;53.800;15.956;2023-04-09T12:23:11;9.10;;;4.20;;
67986;SDS011;54767;53.800;15.956;2023-04-09T12:25:43;5.60;;;4.20;;
67986;SDS011;54767;53.800;15.956;2023-04-09T12:28:13;7.00;;;4.60;;
67986;SDS011;54767;53.800;15.956;2023-04-09T12:30:45;6.90;;;4.40;;
67986;SDS011;54767;53.800;15.956;2023-04-09T12:33:15;6.60;;;4.40;;
67986;SDS011;54767;53.800;15.956;2023-04-09T12:35:43;8.20;;;4.60;;
67986;SDS011;54767;53.800;15.956;2023-04-09T12:38:12;8.50;;;4.50;;
67986;SDS011;54767;53.800;15.956;2023-04-09T12:40:40;8.40;;;5.20;;
67986;SDS011;54767;53.800;15.956;2023-04-09T12:43:08;7.60;;;4.70;;
67986;SDS011;54767;53.800;15.956;2023-04-09T12:45:39;7.60;;;4.10;;
67986;SDS011;54767;53.800;15.956;2023-04-09T12:48:07;8.60;;;4.70;;
67986;SDS011;54767;53.800;15.956;2023-04-09T12:50:36;7.80;;;4.50;;
67986;SDS011;54767;53.800;15.956;2023-04-09T12:53:04;8.20;;;4.10;;
67986;SDS011;54767;53.800;15.956;2023-04-09T12:55:32;7.70;;;4.50;;
67986;SDS011;54767;53.800;15.956;2023-04-09T12:58:01;6.90;;;4.10;;
67986;SDS011;54767;53.800;15.956;2023-04-09T13:00:29;7.10;;;4.30;;
67986;SDS011;54767;53.800;15.956;2023-04-09T13:02:58;8.80;;;4.50;;
67986;SDS011;54767;53.800;15.956;2023-04-09T13:05:26;7.30;;;4.30;;
67986;SDS011;54767;53.800;15.956;2023-04-09T13:07:55;8.90;;;4.10;;
67986;SDS011;54767;53.800;15.956;2023-04-09T13:10:24;8.70;;;4.70;;
67986;SDS011;54767;53.800;15.956;2023-04-09T13:12:52;7.00;;;4.30;;
67986;SDS011;54767;53.800;15.956;2023-04-09T13:15:20;7.70;;;5.60;;
67986;SDS011;54767;53.800;15.956;2023-04-09T13:17:49;10.70;;;6.70;;
67986;SDS011;54767;53.800;15.956;2023-04-09T13:20:18;10.10;;;5.30;;
67986;SDS011;54767;53.800;15.956;2023-04-09T13:22:46;8.90;;;5.40;;
67986;SDS011;54767;53.800;15.956;2023-04-09T13:25:16;7.80;;;5.10;;
67986;SDS011;54767;53.800;15.956;2023-04-09T13:27:45;8.20;;;4.80;;
67986;SDS011;54767;53.800;15.956;2023-04-09T13:30:13;8.70;;;5.00;;
67986;SDS011;54767;53.800;15.956;2023-04-09T13:32:41;7.90;;;4.60;;
67986;SDS011;54767;53.800;15.956;2023-04-09T13:35:10;9.30;;;4.80;;
67986;SDS011;54767;53.800;15.956;2023-04-09T13:37:39;6.60;;;4.50;;
67986;SDS011;54767;53.800;15.956;2023-04-09T13:40:07;8.20;;;4.70;;
67986;SDS011;54767;53.800;15.956;2023-04-09T13:42:36;7.20;;;4.80;;
67986;SDS011;54767;53.800;15.956;2023-04-09T13:45:05;7.20;;;4.30;;
67986;SDS011;54767;53.800;15.956;2023-04-09T13:47:34;8.40;;;4.60;;
67986;SDS011;54767;53.800;15.956;2023-04-09T13:50:02;8.60;;;4.10;;
67986;SDS011;54767;53.800;15.956;2023-04-09T13:52:31;9.00;;;5.00;;
67986;SDS011;54767;53.800;15.956;2023-04-09T13:55:00;8.20;;;4.80;;
67986;SDS011;54767;53.800;15.956;2023-04-09T13:57:28;5.10;;;4.10;;
67986;SDS011;54767;53.800;15.956;2023-04-09T13:59:56;7.80;;;4.00;;
67986;SDS011;54767;53.800;15.956;2023-04-09T14:02:29;6.50;;;4.20;;
67986;SDS011;54767;53.800;15.956;2023-04-09T14:04:58;8.20;;;4.40;;
67986;SDS011;54767;53.800;15.956;2023-04-09T14:07:26;6.90;;;4.10;;
67986;SDS011;54767;53.800;15.956;2023-04-09T14:09:55;8.20;;;4.70;;
67986;SDS011;54767;53.800;15.956;2023-04-09T14:12:23;6.20;;;4.20;;
67986;SDS011;54767;53.800;15.956;2023-04-09T14:14:52;6.80;;;4.50;;
67986;SDS011;54767;53.800;15.956;2023-04-09T14:17:20;7.80;;;4.60;;
67986;SDS011;54767;53.800;15.956;2023-04-09T14:19:48;8.40;;;4.20;;
67986;SDS011;54767;53.800;15.956;2023-04-09T14:22:17;6.50;;;3.80;;
67986;SDS011;54767;53.800;15.956;2023-04-09T14:24:45;7.40;;;4.30;;
67986;SDS011;54767;53.800;15.956;2023-04-09T14:27:13;6.30;;;4.20;;
67986;SDS011;54767;53.800;15.956;2023-04-09T14:29:42;6.30;;;4.10;;
67986;SDS011;54767;53.800;15.956;2023-04-09T14:32:11;7.50;;;4.10;;
67986;SDS011;54767;53.800;15.956;2023-04-09T14:34:39;8.10;;;4.10;;
67986;SDS011;54767;53.800;15.956;2023-04-09T14:37:08;6.80;;;3.80;;
67986;SDS011;54767;53.800;15.956;2023-04-09T14:39:36;5.60;;;3.80;;
67986;SDS011;54767;53.800;15.956;2023-04-09T14:42:05;6.60;;;4.20;;
67986;SDS011;54767;53.800;15.956;2023-04-09T14:44:34;7.90;;;6.00;;
67986;SDS011;54767;53.800;15.956;2023-04-09T14:47:02;12.80;;;9.30;;
67986;SDS011;54767;53.800;15.956;2023-04-09T14:49:30;10.90;;;8.10;;
67986;SDS011;54767;53.800;15.956;2023-04-09T14:51:59;12.50;;;7.20;;
67986;SDS011;54767;53.800;15.956;2023-04-09T14:54:27;6.20;;;4.80;;
67986;SDS011;54767;53.800;15.956;2023-04-09T14:56:58;7.70;;;5.30;;
67986;SDS011;54767;53.800;15.956;2023-04-09T14:59:26;8.00;;;4.60;;
67986;SDS011;54767;53.800;15.956;2023-04-09T15:01:54;10.10;;;4.70;;
67986;SDS011;54767;53.800;15.956;2023-04-09T15:04:23;7.30;;;4.50;;